Weather observations for the past three days for
Fort Eustis / Felker
Metric (Imperial)
Date Time (edt) Wind (kph) Vis. (km) Weather Sky Cond. Temperature (ºC) Relative Humidity Wind Chill (°C) Heat Index (°C) Pressure Precipitation (cm)
Air Dwpt 6 hour altimeter (cm) sea level (mb) 1 hr 3 hr 6 hr
Max. Min.
04 07:55 SW 9 16.09 A Few Clouds FEW250 27.4 23.6 29.5 25.9 80% 31 76.05 1014.2
04 06:55 SW 7 16.09 A Few Clouds FEW250 27.1 23.9 83% 30 76.02 1013.9
04 05:55 SE 6 16.09 Fair CLR 26.1 23.3 85% 28 76.07 1014.5
04 04:55 S 13 16.09 A Few Clouds FEW075 27.1 22.9 78% 30 76.07 1014.5
04 03:55 Calm 16.09 Fair CLR 29.3 23.5 71% 34 76.05 1014.2
04 02:55 SW 11 16.09 A Few Clouds FEW160 28.9 23.3 72% 33 75.97 1013.2
04 01:55 SW 11 16.09 Fair CLR 28.7 23.6 32 28.7 74% 33 76.02 1013.9
04 00:55 SW 9 16.09 Fair CLR 29 24.3 76% 34 76.07 1014.5
03 23:55 S 7 16.09 Fair CLR 29.8 25.1 76% 36 76.07 1014.5
03 22:55 S 11 16.09 Fair CLR 29.1 25.5 81% 35 76.07 1014.5
03 20:55 Calm 16.09 Fair CLR 30.6 25.2 73% 37 76.12 1015.2
03 19:55 SE 6 16.09 Fair CLR 32.2 24.7 35.2 30.3 65% 39 76.05 1014.2
03 18:55 Calm 16.09 Fair CLR 34 22.1 50% 38 76.02 1013.9
03 17:55 NW 6 16.09 Fair CLR 34.6 21.6 47% 39 76.02 1013.9
03 16:55 N 7 16.09 Fair CLR 34.3 23.6 54% 40 76.05 1014.2
03 15:55 NW 6 16.09 Fair CLR 34.1 24 56% 41 76.1 1014.9
03 14:55 Calm 16.09 Fair CLR 33.8 24 57% 40 76.17 1015.9
03 13:55 N 7 16.09 Fair CLR 32.5 23.1 32.6 26 58% 38 76.2 1016.2
03 12:55 S 9 16.09 Fair CLR 31.1 24.7 69% 37 76.23 1016.6
03 11:55 SW 11 16.09 Fair CLR 29.5 25.2 78% 36 76.28 1017.3
03 10:55 SE 7 16.09 Mostly Cloudy BKN016 30.2 24.8 73% 36 76.28 1017.3
03 09:55 Calm 16.09 Overcast OVC009 27.7 24.7 84% 32 76.28 1017.3
03 08:55 S 9 16.09 Overcast OVC006 26.7 24.7 89% 30 76.28 1017.3
03 07:55 S 6 16.09 Overcast OVC006 26.1 24.7 27.2 24.7 92% 28 76.28 1017.3
03 06:55 S 6 16.09 Overcast OVC005 25.7 24.4 93% 27 76.25 1016.9
03 05:55 Calm 16.09 Mostly Cloudy BKN007 27 25.5 92% 31 76.23 1016.6
03 04:55 Calm 16.09 Partly Cloudy SCT006 25 23.6 92% 26 76.2 1016.2
03 03:55 Calm 16.09 Fair CLR 25 23.2 90% 26 76.2 1016.2
03 02:55 Calm 16.09 Fair CLR 25.4 23.2 88% 27 76.23 1016.6
03 01:55 SE 6 16.09 Fair CLR 25.5 23.1 28.5 25.5 87% 27 76.23 1016.6
03 00:55 SE 6 16.09 Fair CLR 26 23.2 85% 28 76.28 1017.3
02 23:55 Calm 16.09 Fair CLR 26.1 23.1 84% 28 76.25 1016.9
02 22:55 Calm 16.09 Fair CLR 27.2 23.4 80% 30 76.28 1017.3
02 21:55 E 6 16.09 Fair CLR 28.3 24.3 79% 33 76.28 1017.3
02 20:55 W 6 16.09 Fair CLR 27.4 23.6 80% 31 76.28 1017.3
02 19:55 S 6 16.09 Fair CLR 27.2 22.8 33.5 27.2 77% 30 76.23 1016.6
02 18:55 S 9 16.09 Fair CLR 27.6 22.1 72% 30 76.25 1016.9
02 17:55 E 13 16.09 Fair CLR 29.5 22.9 68% 33 76.33 1017.9
02 16:55 E 20 16.09 A Few Clouds FEW034 32.2 23.1 59% 37 76.3 1017.6
02 15:55 E 9 16.09 A Few Clouds FEW033 32.4 23.6 60% 38 76.3 1017.6
02 14:55 E 11 16.09 A Few Clouds FEW029 32.4 24.1 62% 39 76.3 1017.6
02 13:55 NE 7 16.09 A Few Clouds FEW031 33.2 24.6 33.8 26.2 61% 40 76.3 1017.6
02 12:55 E 11 16.09 A Few Clouds FEW032 33.5 24.3 59% 40 76.28 1017.3
02 11:55 NE 13 16.09 Fair CLR 32.6 22.3 55% 37 76.3 1017.6
02 10:55 NW 7 16.09 Fair CLR 31.3 22.8 61% 36 76.3 1017.6
02 09:55 W 6 16.09 Fair CLR 29.7 23.8 71% 34 76.28 1017.3
02 08:55 NW 7 16.09 Fair CLR 28.6 23.9 76% 33 76.25 1016.9
02 07:55 Calm 16.09 NULL NULL 26.1 23.5 28.6 25 86% 28 76.25 1016.9
02 06:55 S 6 16.09 Fair CLR 25 23 89% 26 76.23 1016.6
02 05:55 Calm 16.09 Fair CLR 25.7 23.7 89% 27 76.2 1016.2
02 04:55 W 7 16.09 Fair CLR 26.9 24.1 85% 30 76.2 1016.2
02 03:55 Calm 16.09 A Few Clouds FEW070 27.5 24.5 84% 31 76.2 1016.2
02 02:55 S 6 16.09 Fair CLR 27.5 24.3 83% 31 76.2 1016.2
02 01:55 SW 9 16.09 Fair CLR 28.6 25 31.1 26.5 81% 34 76.2 1016.2
02 00:55 S 11 16.09 Fair CLR 27.7 23.5 78% 31 76.2 1016.2
01 23:55 S 11 16.09 Fair CLR 28.5 23.1 73% 32 76.17 1015.9
01 22:55 S 7 16.09 Fair CLR 28.2 23.1 74% 32 76.17 1015.9
01 21:55 S 7 16.09 Fair CLR 28.4 22.6 71% 32 76.15 1015.6
01 20:55 S 9 16.09 Fair CLR 29.6 23.7 71% 34 76.1 1014.9
01 19:55 S 7 16.09 Partly Cloudy SCT250 31.1 23.2 35.5 31.1 63% 36 76.07 1014.5
01 18:55 S 7 16.09 Partly Cloudy FEW050 FEW150 SCT250 32.9 22.3 54% 37 76.12 1015.2
01 17:55 S 7 16.09 Partly Cloudy FEW050 SCT250 34.6 19.8 42% 37 76.12 1015.2
01 16:55 W 6 16.09 Partly Cloudy FEW050 SCT250 35.1 17.7 36% 36 76.15 1015.6
01 15:55 W 7 16.09 A Few Clouds FEW050 FEW250 34.4 18.8 40% 36 76.15 1015.6
01 14:55 S 9 16.09 A Few Clouds FEW050 FEW250 34.4 21.1 46% 38 76.17 1015.9
01 13:55 NW 9 16.09 Partly Cloudy SCT060 34 20.3 34 25.3 45% 37 76.23 1016.6
01 12:55 Calm 16.09 A Few Clouds FEW050 33.2 22 52% 37 76.23 1016.6
01 11:55 NW 6 16.09 Fair CLR 31.4 20.6 53% 34 76.3 1017.6
01 10:55 N 7 16.09 Partly Cloudy SCT110 29.2 22.4 67% 33 76.33 1017.9
01 09:55 NW 9 16.09 Partly Cloudy FEW100 SCT250 27.9 22.6 73% 31 76.33 1017.9
01 08:55 NW 9 16.09 Partly Cloudy SCT100 26.5 22.1 77% 28 76.33 1017.9
Date Time (edt) Wind (kph) Vis. (km) Weather Sky Cond. Air Dwpt Max. Min. Relative Humidity Wind Chill (°C) Heat Index (°C) altimeter (cm) sea level (mb) 1 hr 3 hr 6 hr
6 hour
Temperature (ºC) Pressure Precipitation (cm)